RPA4337 KLGA-KDCA
Flight info
| Callsign | RPA4337 |
|---|---|
| Flight time | 0h 50m |
| Altitude | 18000 |
| Route | BIGGY Q75 MXE CLIPR3 |
| Aircraft | E75L/M-SDE3GILORVW/S |
Departure
| Time | 2026-05-06 01:22 |
|---|---|
| Airport | LaGuardia Airport (KLGA) |
Arrival
| Time | 2026-05-06 02:12 |
|---|---|
| Airport | Ronald Reagan Washington National Airport (KDCA) |
| Time | Latitude | Longitude | Altitude | Speed | Heading |
|---|---|---|---|---|---|
| 2026-05-06 00:45 | 40.77550 | -73.87463 | 22 ft | 0 kts | 76° |
| 2026-05-06 00:53 | 40.77545 | -73.87461 | 20 ft | 15 kts | 76° |
| 2026-05-06 00:53 | 40.77549 | -73.87463 | 20 ft | 0 kts | 77° |
| 2026-05-06 01:07 | 40.77544 | -73.87483 | 21 ft | 0 kts | 66° |
| 2026-05-06 01:07 | 40.77544 | -73.87484 | 20 ft | 2 kts | 66° |
| 2026-05-06 01:08 | 40.77536 | -73.87505 | 20 ft | 3 kts | 77° |
| 2026-05-06 01:08 | 40.77542 | -73.87473 | 20 ft | 4 kts | 75° |
| 2026-05-06 01:08 | 40.77545 | -73.87459 | 20 ft | 0 kts | 76° |
| 2026-05-06 01:10 | 40.77543 | -73.87470 | 20 ft | 4 kts | 72° |
| 2026-05-06 01:11 | 40.77530 | -73.87500 | 24 ft | 4 kts | 45° |
| 2026-05-06 01:11 | 40.77508 | -73.87516 | 20 ft | 4 kts | 359° |
| 2026-05-06 01:11 | 40.77495 | -73.87509 | 20 ft | 0 kts | 311° |
| 2026-05-06 01:14 | 40.77500 | -73.87516 | 20 ft | 3 kts | 311° |
| 2026-05-06 01:15 | 40.77532 | -73.87555 | 20 ft | 6 kts | 324° |
| 2026-05-06 01:15 | 40.77575 | -73.87594 | 21 ft | 9 kts | 325° |
| 2026-05-06 01:15 | 40.77591 | -73.87611 | 21 ft | 3 kts | 312° |
| 2026-05-06 01:15 | 40.77616 | -73.87653 | 22 ft | 2 kts | 311° |
| 2026-05-06 01:16 | 40.77633 | -73.87661 | 21 ft | 5 kts | 346° |
| 2026-05-06 01:16 | 40.77639 | -73.87662 | 23 ft | 0 kts | 354° |
| 2026-05-06 01:16 | 40.77650 | -73.87658 | 21 ft | 3 kts | 25° |
| 2026-05-06 01:17 | 40.77694 | -73.87622 | 21 ft | 11 kts | 33° |
| 2026-05-06 01:17 | 40.77782 | -73.87548 | 17 ft | 18 kts | 33° |
| 2026-05-06 01:17 | 40.77860 | -73.87485 | 17 ft | 8 kts | 31° |
| 2026-05-06 01:17 | 40.77909 | -73.87449 | 15 ft | 6 kts | 10° |
| 2026-05-06 01:18 | 40.77957 | -73.87520 | 14 ft | 16 kts | 300° |
| 2026-05-06 01:18 | 40.78018 | -73.87649 | 13 ft | 16 kts | 303° |
| 2026-05-06 01:18 | 40.78062 | -73.87737 | 14 ft | 9 kts | 303° |
| 2026-05-06 01:18 | 40.78101 | -73.87817 | 14 ft | 10 kts | 302° |
| 2026-05-06 01:19 | 40.78147 | -73.87862 | 29 ft | 8 kts | 341° |
| 2026-05-06 01:19 | 40.78196 | -73.87851 | 14 ft | 8 kts | 30° |
| 2026-05-06 01:19 | 40.78206 | -73.87794 | 13 ft | 7 kts | 125° |
| 2026-05-06 01:19 | 40.78204 | -73.87791 | 13 ft | 0 kts | 126° |
| 2026-05-06 01:21 | 40.78200 | -73.87784 | 12 ft | 5 kts | 126° |
| 2026-05-06 01:21 | 40.78021 | -73.87417 | 11 ft | 92 kts | 121° |
| 2026-05-06 01:22 | 40.77532 | -73.86414 | 93 ft | 160 kts | 124° |
| 2026-05-06 01:22 | 40.76866 | -73.85093 | 864 ft | 187 kts | 131° |
| 2026-05-06 01:22 | 40.75891 | -73.83740 | 1400 ft | 225 kts | 156° |
| 2026-05-06 01:22 | 40.74410 | -73.83102 | 1455 ft | 219 kts | 178° |
| 2026-05-06 01:23 | 40.73004 | -73.82898 | 2522 ft | 195 kts | 187° |
| 2026-05-06 01:23 | 40.71724 | -73.83003 | 3859 ft | 177 kts | 197° |
| 2026-05-06 01:23 | 40.70506 | -73.83401 | 4633 ft | 190 kts | 205° |
| 2026-05-06 01:23 | 40.69189 | -73.84147 | 4917 ft | 218 kts | 216° |
| 2026-05-06 01:24 | 40.68182 | -73.85552 | 5365 ft | 217 kts | 240° |
| 2026-05-06 01:24 | 40.67586 | -73.87397 | 4917 ft | 218 kts | 256° |
| 2026-05-06 01:24 | 40.67463 | -73.89396 | 5168 ft | 226 kts | 268° |
| 2026-05-06 01:24 | 40.67680 | -73.91526 | 5261 ft | 239 kts | 283° |
| 2026-05-06 01:25 | 40.68469 | -73.93419 | 5120 ft | 233 kts | 298° |
| 2026-05-06 01:25 | 40.69432 | -73.95120 | 5015 ft | 233 kts | 300° |
| 2026-05-06 01:25 | 40.70428 | -73.96891 | 5161 ft | 248 kts | 301° |
| 2026-05-06 01:25 | 40.71721 | -73.98485 | 5720 ft | 259 kts | 315° |
| 2026-05-06 01:26 | 40.73172 | -73.99924 | 6466 ft | 264 kts | 316° |
| 2026-05-06 01:26 | 40.74675 | -74.01363 | 7089 ft | 268 kts | 314° |
| 2026-05-06 01:26 | 40.75827 | -74.03203 | 7648 ft | 260 kts | 288° |
| 2026-05-06 01:26 | 40.76156 | -74.05499 | 8241 ft | 256 kts | 265° |
| 2026-05-06 01:27 | 40.75756 | -74.07778 | 8746 ft | 257 kts | 247° |
| 2026-05-06 01:27 | 40.75065 | -74.09966 | 9272 ft | 261 kts | 248° |
| 2026-05-06 01:27 | 40.74392 | -74.12134 | 9769 ft | 265 kts | 248° |
| 2026-05-06 01:27 | 40.73660 | -74.14383 | 10178 ft | 272 kts | 246° |
| 2026-05-06 01:28 | 40.72826 | -74.16727 | 10174 ft | 292 kts | 244° |
| 2026-05-06 01:28 | 40.71889 | -74.19182 | 10195 ft | 307 kts | 244° |
| 2026-05-06 01:28 | 40.70914 | -74.21737 | 10290 ft | 316 kts | 244° |
| 2026-05-06 01:28 | 40.69943 | -74.24338 | 10621 ft | 316 kts | 245° |
| 2026-05-06 01:29 | 40.69009 | -74.26935 | 11124 ft | 311 kts | 245° |
| 2026-05-06 01:29 | 40.68095 | -74.29516 | 11571 ft | 311 kts | 245° |
| 2026-05-06 01:29 | 40.67159 | -74.32103 | 11844 ft | 316 kts | 244° |
| 2026-05-06 01:29 | 40.66178 | -74.34730 | 12043 ft | 322 kts | 243° |
| 2026-05-06 01:30 | 40.65168 | -74.37402 | 12345 ft | 325 kts | 244° |
| 2026-05-06 01:30 | 40.64181 | -74.40050 | 12803 ft | 323 kts | 244° |
| 2026-05-06 01:30 | 40.63210 | -74.42697 | 13331 ft | 320 kts | 244° |
| 2026-05-06 01:30 | 40.62246 | -74.45328 | 13787 ft | 320 kts | 244° |
| 2026-05-06 01:31 | 40.61261 | -74.47974 | 14098 ft | 324 kts | 243° |
| 2026-05-06 01:31 | 40.60250 | -74.50648 | 14378 ft | 329 kts | 243° |
| 2026-05-06 01:31 | 40.59221 | -74.53344 | 14714 ft | 331 kts | 243° |
| 2026-05-06 01:31 | 40.58191 | -74.56055 | 15145 ft | 331 kts | 243° |
| 2026-05-06 01:32 | 40.57171 | -74.58753 | 15612 ft | 329 kts | 243° |
| 2026-05-06 01:32 | 40.56146 | -74.61446 | 15981 ft | 330 kts | 243° |
| 2026-05-06 01:32 | 40.55101 | -74.64158 | 16194 ft | 335 kts | 242° |
| 2026-05-06 01:32 | 40.54027 | -74.66899 | 16305 ft | 341 kts | 242° |
| 2026-05-06 01:33 | 40.52929 | -74.69689 | 16436 ft | 345 kts | 242° |
| 2026-05-06 01:33 | 40.51828 | -74.72494 | 16689 ft | 345 kts | 242° |
| 2026-05-06 01:33 | 40.50736 | -74.75285 | 17005 ft | 343 kts | 242° |
| 2026-05-06 01:33 | 40.49644 | -74.78071 | 17287 ft | 342 kts | 242° |
| 2026-05-06 01:34 | 40.48547 | -74.80851 | 17470 ft | 344 kts | 242° |
| 2026-05-06 01:34 | 40.47432 | -74.83661 | 17563 ft | 348 kts | 242° |
| 2026-05-06 01:34 | 40.46305 | -74.86487 | 17675 ft | 351 kts | 242° |
| 2026-05-06 01:34 | 40.45176 | -74.89320 | 17793 ft | 345 kts | 242° |
| 2026-05-06 01:35 | 40.44052 | -74.92131 | 17527 ft | 353 kts | 242° |
| 2026-05-06 01:35 | 40.42894 | -74.95019 | 17374 ft | 361 kts | 242° |
| 2026-05-06 01:35 | 40.41611 | -74.97822 | 17522 ft | 358 kts | 232° |
| 2026-05-06 01:35 | 40.39954 | -75.00256 | 17679 ft | 356 kts | 228° |
| 2026-05-06 01:36 | 40.38313 | -75.02576 | 17946 ft | 347 kts | 228° |
| 2026-05-06 01:36 | 40.36648 | -75.04920 | 17981 ft | 347 kts | 227° |
| 2026-05-06 01:36 | 40.35016 | -75.07205 | 17765 ft | 346 kts | 227° |
| 2026-05-06 01:36 | 40.33358 | -75.09519 | 17998 ft | 339 kts | 227° |
| 2026-05-06 01:37 | 40.31743 | -75.11777 | 17920 ft | 343 kts | 227° |
| 2026-05-06 01:37 | 40.30144 | -75.14039 | 17913 ft | 335 kts | 228° |
| 2026-05-06 01:37 | 40.28565 | -75.16263 | 17991 ft | 340 kts | 227° |
| 2026-05-06 01:37 | 40.26932 | -75.18517 | 17950 ft | 343 kts | 227° |
| 2026-05-06 01:38 | 40.25286 | -75.20793 | 17928 ft | 344 kts | 227° |
| 2026-05-06 01:38 | 40.23640 | -75.23074 | 17941 ft | 345 kts | 227° |
| 2026-05-06 01:38 | 40.22005 | -75.25345 | 17935 ft | 345 kts | 227° |
| 2026-05-06 01:38 | 40.20359 | -75.27632 | 17936 ft | 345 kts | 227° |
| 2026-05-06 01:39 | 40.18709 | -75.29922 | 17928 ft | 345 kts | 227° |
| 2026-05-06 01:39 | 40.17088 | -75.32171 | 17903 ft | 338 kts | 227° |
| 2026-05-06 01:39 | 40.15462 | -75.34426 | 17938 ft | 343 kts | 227° |
| 2026-05-06 01:39 | 40.13822 | -75.36697 | 17919 ft | 344 kts | 227° |
| 2026-05-06 01:40 | 40.12178 | -75.38973 | 17918 ft | 345 kts | 227° |
| 2026-05-06 01:40 | 40.10531 | -75.41253 | 17915 ft | 345 kts | 227° |
| 2026-05-06 01:40 | 40.08916 | -75.43488 | 17913 ft | 335 kts | 228° |
| 2026-05-06 01:40 | 40.07323 | -75.45695 | 17921 ft | 334 kts | 228° |
| 2026-05-06 01:41 | 40.05731 | -75.47895 | 17926 ft | 333 kts | 228° |
| 2026-05-06 01:41 | 40.04139 | -75.50094 | 17928 ft | 333 kts | 228° |
| 2026-05-06 01:41 | 40.02547 | -75.52292 | 17927 ft | 333 kts | 228° |
| 2026-05-06 01:41 | 40.00952 | -75.54490 | 17939 ft | 333 kts | 228° |
| 2026-05-06 01:42 | 39.99370 | -75.56671 | 17902 ft | 328 kts | 227° |
| 2026-05-06 01:42 | 39.97803 | -75.58830 | 17961 ft | 331 kts | 227° |
| 2026-05-06 01:42 | 39.96223 | -75.61005 | 17955 ft | 333 kts | 227° |
| 2026-05-06 01:42 | 39.94628 | -75.63197 | 17939 ft | 334 kts | 227° |
| 2026-05-06 01:43 | 39.93031 | -75.65393 | 17935 ft | 334 kts | 227° |
| 2026-05-06 01:43 | 39.91523 | -75.67684 | 17956 ft | 333 kts | 235° |
| 2026-05-06 01:43 | 39.90207 | -75.70176 | 17914 ft | 334 kts | 235° |
| 2026-05-06 01:43 | 39.88903 | -75.72663 | 17898 ft | 330 kts | 236° |
| 2026-05-06 01:44 | 39.87621 | -75.75120 | 17899 ft | 328 kts | 236° |
| 2026-05-06 01:44 | 39.86332 | -75.77591 | 17929 ft | 332 kts | 236° |
| 2026-05-06 01:44 | 39.85035 | -75.80078 | 17890 ft | 331 kts | 236° |
| 2026-05-06 01:44 | 39.83750 | -75.82543 | 17923 ft | 331 kts | 236° |
| 2026-05-06 01:45 | 39.82456 | -75.85021 | 17915 ft | 331 kts | 236° |
| 2026-05-06 01:45 | 39.81161 | -75.87503 | 17908 ft | 331 kts | 236° |
| 2026-05-06 01:45 | 39.79865 | -75.89981 | 17910 ft | 331 kts | 236° |
| 2026-05-06 01:45 | 39.78586 | -75.92425 | 17886 ft | 324 kts | 236° |
| 2026-05-06 01:46 | 39.77309 | -75.94863 | 17900 ft | 329 kts | 236° |
| 2026-05-06 01:46 | 39.76022 | -75.97320 | 17891 ft | 330 kts | 236° |
| 2026-05-06 01:46 | 39.74724 | -75.99796 | 17884 ft | 331 kts | 236° |
| 2026-05-06 01:46 | 39.73430 | -76.02262 | 17886 ft | 331 kts | 236° |
| 2026-05-06 01:47 | 39.72130 | -76.04733 | 17884 ft | 331 kts | 236° |
| 2026-05-06 01:47 | 39.70831 | -76.07206 | 17888 ft | 331 kts | 236° |
| 2026-05-06 01:47 | 39.69540 | -76.09659 | 17873 ft | 326 kts | 236° |
| 2026-05-06 01:47 | 39.68261 | -76.12087 | 17901 ft | 328 kts | 236° |
| 2026-05-06 01:48 | 39.66964 | -76.14549 | 17648 ft | 332 kts | 237° |
| 2026-05-06 01:48 | 39.65675 | -76.16992 | 17367 ft | 325 kts | 236° |
| 2026-05-06 01:48 | 39.64388 | -76.19429 | 17002 ft | 329 kts | 236° |
| 2026-05-06 01:48 | 39.63101 | -76.21864 | 16562 ft | 326 kts | 236° |
| 2026-05-06 01:49 | 39.61800 | -76.24325 | 16120 ft | 331 kts | 236° |
| 2026-05-06 01:49 | 39.60506 | -76.26770 | 15671 ft | 326 kts | 236° |
| 2026-05-06 01:49 | 39.57659 | -76.30885 | 14869 ft | 323 kts | 218° |
| 2026-05-06 01:50 | 39.55844 | -76.32523 | 14420 ft | 317 kts | 217° |
| 2026-05-06 01:50 | 39.54027 | -76.34138 | 13996 ft | 308 kts | 217° |
| 2026-05-06 01:50 | 39.52295 | -76.35664 | 13592 ft | 302 kts | 217° |
| 2026-05-06 01:50 | 39.50582 | -76.37168 | 13201 ft | 293 kts | 217° |
| 2026-05-06 01:51 | 39.48913 | -76.38630 | 12824 ft | 287 kts | 216° |
| 2026-05-06 01:51 | 39.47276 | -76.40052 | 12449 ft | 281 kts | 216° |
| 2026-05-06 01:51 | 39.45665 | -76.41452 | 12125 ft | 275 kts | 216° |
| 2026-05-06 01:51 | 39.44102 | -76.42808 | 11930 ft | 269 kts | 217° |
| 2026-05-06 01:52 | 39.42555 | -76.44145 | 12039 ft | 270 kts | 217° |
| 2026-05-06 01:52 | 39.40988 | -76.45513 | 12041 ft | 275 kts | 217° |
| 2026-05-06 01:52 | 39.39378 | -76.46911 | 11983 ft | 278 kts | 216° |
| 2026-05-06 01:52 | 39.37775 | -76.48298 | 11987 ft | 277 kts | 216° |
| 2026-05-06 01:53 | 39.36209 | -76.49651 | 12041 ft | 277 kts | 216° |
| 2026-05-06 01:53 | 39.34602 | -76.51037 | 12037 ft | 278 kts | 216° |
| 2026-05-06 01:53 | 39.32996 | -76.52423 | 12032 ft | 278 kts | 216° |
| 2026-05-06 01:53 | 39.31408 | -76.53797 | 12038 ft | 277 kts | 216° |
| 2026-05-06 01:54 | 39.29806 | -76.55183 | 12040 ft | 277 kts | 216° |
| 2026-05-06 01:54 | 39.28220 | -76.56551 | 12008 ft | 267 kts | 216° |
| 2026-05-06 01:54 | 39.26709 | -76.57852 | 11934 ft | 256 kts | 216° |
| 2026-05-06 01:54 | 39.25244 | -76.59115 | 11939 ft | 250 kts | 216° |
| 2026-05-06 01:55 | 39.23799 | -76.60359 | 12037 ft | 252 kts | 217° |
| 2026-05-06 01:55 | 39.22336 | -76.61624 | 12041 ft | 254 kts | 217° |
| 2026-05-06 01:55 | 39.20867 | -76.62888 | 12043 ft | 254 kts | 217° |
| 2026-05-06 01:55 | 39.19395 | -76.64156 | 11998 ft | 254 kts | 216° |
| 2026-05-06 01:56 | 39.17929 | -76.65417 | 11994 ft | 253 kts | 216° |
| 2026-05-06 01:56 | 39.16473 | -76.66688 | 11996 ft | 252 kts | 219° |
| 2026-05-06 01:56 | 39.15161 | -76.68174 | 12004 ft | 251 kts | 226° |
| 2026-05-06 01:56 | 39.13919 | -76.69766 | 11985 ft | 252 kts | 226° |
| 2026-05-06 01:57 | 39.12678 | -76.71318 | 12036 ft | 252 kts | 225° |
| 2026-05-06 01:57 | 39.11403 | -76.72868 | 12033 ft | 252 kts | 225° |
| 2026-05-06 01:57 | 39.10119 | -76.74401 | 12043 ft | 252 kts | 225° |
| 2026-05-06 01:57 | 39.08826 | -76.75938 | 11757 ft | 257 kts | 224° |
| 2026-05-06 01:58 | 39.07500 | -76.77510 | 11325 ft | 246 kts | 224° |
| 2026-05-06 01:58 | 39.06300 | -76.78921 | 11201 ft | 224 kts | 224° |
| 2026-05-06 01:58 | 39.05191 | -76.80230 | 10971 ft | 210 kts | 225° |
| 2026-05-06 01:58 | 39.04139 | -76.81472 | 10753 ft | 203 kts | 225° |
| 2026-05-06 01:59 | 39.03071 | -76.82741 | 10396 ft | 221 kts | 225° |
| 2026-05-06 01:59 | 39.01910 | -76.84121 | 9912 ft | 233 kts | 225° |
| 2026-05-06 01:59 | 39.00700 | -76.85548 | 9384 ft | 238 kts | 224° |
| 2026-05-06 01:59 | 38.99485 | -76.86979 | 8871 ft | 236 kts | 224° |
| 2026-05-06 02:00 | 38.98307 | -76.88436 | 8349 ft | 233 kts | 231° |
| 2026-05-06 02:00 | 38.97551 | -76.90253 | 7839 ft | 232 kts | 252° |
| 2026-05-06 02:00 | 38.97401 | -76.92313 | 7344 ft | 233 kts | 266° |
| 2026-05-06 02:00 | 38.97442 | -76.94390 | 6859 ft | 232 kts | 266° |
| 2026-05-06 02:01 | 38.97491 | -76.96457 | 6528 ft | 232 kts | 265° |
| 2026-05-06 02:01 | 38.97534 | -76.98517 | 6326 ft | 229 kts | 265° |
| 2026-05-06 02:01 | 38.97574 | -77.00530 | 6136 ft | 228 kts | 265° |
| 2026-05-06 02:01 | 38.97916 | -77.02536 | 6072 ft | 234 kts | 288° |
| 2026-05-06 02:02 | 38.98902 | -77.04262 | 6225 ft | 249 kts | 304° |
| 2026-05-06 02:02 | 39.00147 | -77.05857 | 6208 ft | 255 kts | 308° |
| 2026-05-06 02:02 | 39.01440 | -77.07392 | 5957 ft | 251 kts | 309° |
| 2026-05-06 02:02 | 39.02717 | -77.08888 | 5701 ft | 248 kts | 309° |
| 2026-05-06 02:03 | 39.03983 | -77.10387 | 5453 ft | 244 kts | 308° |
| 2026-05-06 02:03 | 39.05198 | -77.11888 | 5208 ft | 240 kts | 307° |
| 2026-05-06 02:03 | 39.06387 | -77.13382 | 4967 ft | 238 kts | 307° |
| 2026-05-06 02:03 | 39.07564 | -77.14859 | 4715 ft | 236 kts | 307° |
| 2026-05-06 02:04 | 39.08735 | -77.16324 | 4466 ft | 233 kts | 307° |
| 2026-05-06 02:04 | 39.09871 | -77.17739 | 4229 ft | 223 kts | 306° |
| 2026-05-06 02:04 | 39.10880 | -77.19138 | 3971 ft | 200 kts | 290° |
| 2026-05-06 02:04 | 39.11126 | -77.20698 | 3729 ft | 168 kts | 251° |
| 2026-05-06 02:05 | 39.10500 | -77.21820 | 3495 ft | 153 kts | 213° |
| 2026-05-06 02:05 | 39.09509 | -77.22295 | 3273 ft | 158 kts | 192° |
| 2026-05-06 02:05 | 39.08409 | -77.22415 | 3014 ft | 159 kts | 192° |
| 2026-05-06 02:05 | 39.07306 | -77.22545 | 2774 ft | 156 kts | 192° |
| 2026-05-06 02:06 | 39.06250 | -77.22673 | 2536 ft | 148 kts | 192° |
| 2026-05-06 02:06 | 39.05260 | -77.22935 | 2695 ft | 149 kts | 198° |
| 2026-05-06 02:06 | 39.04235 | -77.23279 | 2809 ft | 152 kts | 201° |
| 2026-05-06 02:06 | 39.03167 | -77.23457 | 2995 ft | 163 kts | 184° |
| 2026-05-06 02:07 | 39.02045 | -77.23271 | 3042 ft | 160 kts | 179° |
| 2026-05-06 02:07 | 39.00959 | -77.22730 | 3159 ft | 180 kts | 153° |
| 2026-05-06 02:07 | 39.00167 | -77.21357 | 2992 ft | 196 kts | 130° |
| 2026-05-06 02:07 | 38.99521 | -77.19831 | 2881 ft | 197 kts | 130° |
| 2026-05-06 02:08 | 38.98842 | -77.18370 | 2717 ft | 189 kts | 134° |
| 2026-05-06 02:08 | 38.98050 | -77.17026 | 2605 ft | 185 kts | 141° |
| 2026-05-06 02:08 | 38.97237 | -77.15801 | 2488 ft | 181 kts | 143° |
| 2026-05-06 02:08 | 38.96367 | -77.14661 | 2268 ft | 171 kts | 149° |
| 2026-05-06 02:09 | 38.95413 | -77.13836 | 2179 ft | 167 kts | 160° |
| 2026-05-06 02:09 | 38.94419 | -77.13059 | 2029 ft | 170 kts | 158° |
| 2026-05-06 02:09 | 38.93474 | -77.12150 | 1859 ft | 170 kts | 153° |
| 2026-05-06 02:09 | 38.92510 | -77.11300 | 1843 ft | 168 kts | 156° |
| 2026-05-06 02:10 | 38.91876 | -77.10717 | 1714 ft | 172 kts | 152° |
| 2026-05-06 02:10 | 38.90753 | -77.09245 | 1504 ft | 190 kts | 127° |
| 2026-05-06 02:10 | 38.90444 | -77.08187 | 1285 ft | 186 kts | 115° |
| 2026-05-06 02:10 | 38.90042 | -77.06782 | 993 ft | 149 kts | 130° |
| 2026-05-06 02:11 | 38.89278 | -77.05985 | 783 ft | 141 kts | 152° |
| 2026-05-06 02:11 | 38.88458 | -77.05266 | 586 ft | 143 kts | 144° |
| 2026-05-06 02:11 | 38.87713 | -77.04477 | 443 ft | 132 kts | 143° |
| 2026-05-06 02:11 | 38.86910 | -77.03972 | 231 ft | 128 kts | 174° |
| 2026-05-06 02:12 | 38.86032 | -77.03865 | 45 ft | 126 kts | 178° |
| 2026-05-06 02:12 | 38.85278 | -77.03792 | 21 ft | 81 kts | 174° |
| 2026-05-06 02:12 | 38.84912 | -77.03778 | 21 ft | 31 kts | 206° |
| 2026-05-06 02:12 | 38.84882 | -77.03867 | 21 ft | 5 kts | 291° |
| 2026-05-06 02:13 | 38.84910 | -77.03889 | 21 ft | 6 kts | 344° |
| 2026-05-06 02:13 | 38.84969 | -77.03898 | 21 ft | 11 kts | 355° |
| 2026-05-06 02:13 | 38.85063 | -77.03908 | 22 ft | 16 kts | 356° |
| 2026-05-06 02:13 | 38.85147 | -77.03949 | 22 ft | 12 kts | 303° |
| 2026-05-06 02:14 | 38.85215 | -77.03985 | 23 ft | 12 kts | 352° |
| 2026-05-06 02:14 | 38.85302 | -77.03990 | 22 ft | 14 kts | 356° |
| 2026-05-06 02:14 | 38.85403 | -77.04002 | 22 ft | 16 kts | 355° |
| 2026-05-06 02:14 | 38.85515 | -77.04019 | 22 ft | 12 kts | 345° |
| 2026-05-06 02:15 | 38.85543 | -77.04065 | 24 ft | 1 kts | 274° |
| 2026-05-06 02:15 | 38.85540 | -77.04082 | 22 ft | 0 kts | 254° |
| 2026-05-06 02:15 | 38.85539 | -77.04083 | 22 ft | 1 kts | 254° |
| 2026-05-06 02:15 | 38.85529 | -77.04125 | 22 ft | 10 kts | 252° |
| 2026-05-06 02:16 | 38.85502 | -77.04233 | 22 ft | 13 kts | 253° |
| 2026-05-06 02:16 | 38.85478 | -77.04295 | 23 ft | 5 kts | 213° |
| 2026-05-06 02:16 | 38.85450 | -77.04291 | 22 ft | 5 kts | 160° |
| 2026-05-06 02:16 | 38.85432 | -77.04283 | 22 ft | 0 kts | 162° |